Time;durP1;ratioP1;P1;durP2;ratioP2;P2;SDS_P1;SDS_P2;PMS_P1;PMS_P2;Temp;Humidity;BMP_temperature;BMP_pressure;BME280_temperature;BME280_humidity;BME280_pressure;Samples;Min_cycle;Max_cycle;Signal;HPM_P1;HPM_P2
2022/04/18 07:46:07;;;;;;;7.45;2.72;;;20.90;42.90;;;;;;1957362;73;25827;-70
2022/04/18 07:48:37;;;;;;;8.30;2.02;;;21.00;42.90;;;;;;1917619;75;21489;-64
2022/04/18 07:53:55;;;;;;;12.65;2.20;;;21.60;42.50;;;;;;1917465;75;21184;-67
2022/04/18 07:56:25;;;;;;;6.62;2.58;;;21.80;39.20;;;;;;1917662;74;21019;-62
2022/04/18 07:58:55;;;;;;;18.98;2.95;;;22.10;41.90;;;;;;1917529;75;21065;-62
2022/04/18 08:01:29;;;;;;;5.45;2.08;;;22.20;39.40;;;;;;1917084;74;21508;-65
2022/04/18 08:04:02;;;;;;;5.10;2.00;;;22.30;38.60;;;;;;1917366;75;21061;-64
2022/04/18 08:06:33;;;;;;;6.43;2.53;;;22.40;38.30;;;;;;1917946;75;21081;-64
2022/04/18 08:09:06;;;;;;;;;;;22.50;39.50;;;;;;1909774;74;21497;-65
2022/04/18 08:11:36;;;;;;;7.85;2.75;;;22.70;37.20;;;;;;1917773;75;20108;-70
2022/04/18 08:14:05;;;;;;;16.65;3.08;;;22.70;38.30;;;;;;1917448;75;21038;-63
2022/04/18 08:16:45;;;;;;;12.55;2.65;;;22.90;38.80;;;;;;1917115;74;21075;-64
2022/04/18 08:19:16;;;;;;;10.35;2.62;;;23.00;38.20;;;;;;1886368;74;21054;-64
2022/04/18 08:21:45;;;;;;;14.43;3.00;;;23.10;38.20;;;;;;1904800;73;21069;-64
2022/04/18 08:24:15;;;;;;;11.70;3.85;;;23.20;37.70;;;;;;1900506;75;21106;-64
2022/04/18 08:26:54;;;;;;;11.43;3.37;;;23.20;37.80;;;;;;1894737;75;21114;-66
2022/04/18 08:29:24;;;;;;;8.53;3.10;;;23.30;37.70;;;;;;1883985;76;21122;-63
2022/04/18 08:32:12;;;;;;;6.47;2.80;;;23.30;37.30;;;;;;1884920;76;21161;-63
2022/04/18 08:34:42;;;;;;;11.75;3.27;;;23.40;36.90;;;;;;1893994;75;21042;-68
2022/04/18 08:37:25;;;;;;;8.75;2.62;;;23.50;37.00;;;;;;1901366;75;21047;-62
2022/04/18 08:40:21;;;;;;;15.63;5.25;;;23.60;36.50;;;;;;1905628;75;21123;-64
2022/04/18 08:43:04;;;;;;;15.43;3.00;;;23.70;35.50;;;;;;1916103;74;21199;-68
2022/04/18 08:45:50;;;;;;;15.55;4.55;;;23.80;35.60;;;;;;1897301;74;21036;-62
2022/04/18 08:54:09;;;;;;;9.60;2.80;;;23.90;35.50;;;;;;1890505;75;21176;-61
2022/04/18 08:56:39;;;;;;;7.17;2.58;;;23.90;35.90;;;;;;1889166;75;21070;-66
2022/04/18 08:59:08;;;;;;;9.50;2.85;;;23.90;36.10;;;;;;1889296;75;21068;-65
2022/04/18 09:01:40;;;;;;;14.47;3.00;;;23.90;35.60;;;;;;1886677;75;21021;-61
2022/04/18 09:04:14;;;;;;;8.63;3.15;;;24.00;36.30;;;;;;1887298;75;21134;-63
2022/04/18 09:06:44;;;;;;;9.60;2.92;;;24.00;36.20;;;;;;1885723;75;20991;-61
2022/04/18 09:09:15;;;;;;;12.30;2.60;;;24.10;36.10;;;;;;1889665;74;21064;-62
2022/04/18 09:11:46;;;;;;;7.47;3.15;;;24.20;35.30;;;;;;1899592;75;21019;-62
2022/04/18 09:14:17;;;;;;;13.38;3.52;;;24.30;35.10;;;;;;1894583;74;21098;-63
2022/04/18 09:16:48;;;;;;;12.23;2.83;;;24.30;35.00;;;;;;1888302;74;21479;-61
2022/04/18 09:19:35;;;;;;;13.50;4.75;;;24.20;35.20;;;;;;1876660;75;21201;-58
2022/04/18 09:22:07;;;;;;;13.48;4.40;;;24.20;35.50;;;;;;1899712;75;21075;-59
2022/04/18 09:24:42;;;;;;;13.15;3.47;;;24.20;35.10;;;;;;1903232;74;21082;-60
2022/04/18 09:27:29;;;;;;;9.03;3.70;;;24.20;35.30;;;;;;1903494;74;21035;-61
2022/04/18 09:30:15;;;;;;;9.38;3.08;;;24.30;35.20;;;;;;1899156;74;21091;-59
2022/04/18 09:32:57;;;;;;;19.30;3.00;;;24.30;34.50;;;;;;1885897;75;21619;-59
2022/04/18 09:35:40;;;;;;;10.30;4.20;;;24.40;34.90;;;;;;1874092;75;21047;-62
2022/04/18 09:38:11;;;;;;;5.80;2.40;;;24.50;35.20;;;;;;1887643;75;21073;-61
2022/04/18 09:43:40;;;;;;;13.75;3.08;;;24.60;33.90;;;;;;1945462;73;25885;-61
2022/04/18 09:46:10;;;;;;;9.23;3.05;;;24.60;34.50;;;;;;1968677;72;21081;-60
2022/04/18 09:48:42;;;;;;;13.98;3.85;;;24.50;34.50;;;;;;1962490;73;21093;-63
2022/04/18 09:51:17;;;;;;;11.45;3.17;;;24.40;34.50;;;;;;1962800;73;21593;-60
2022/04/18 09:53:50;;;;;;;6.58;2.85;;;24.40;34.80;;;;;;1966029;72;21021;-59
2022/04/18 09:56:21;;;;;;;10.10;2.22;;;24.30;33.50;;;;;;1968660;72;21633;-58
2022/04/18 09:58:50;;;;;;;12.80;3.45;;;24.30;33.60;;;;;;1969150;72;21029;-57
2022/04/18 10:01:19;;;;;;;12.18;2.70;;;24.40;33.60;;;;;;1967874;72;21092;-59
2022/04/18 10:03:52;;;;;;;15.10;4.05;;;24.40;33.30;;;;;;1963999;73;21134;-61
2022/04/18 10:06:24;;;;;;;9.85;3.25;;;24.50;34.30;;;;;;1962499;73;21077;-60
2022/04/18 10:08:54;;;;;;;9.75;2.60;;;24.60;34.60;;;;;;1964008;73;21134;-57
2022/04/18 10:11:24;;;;;;;7.12;2.02;;;24.70;34.50;;;;;;1964894;72;20989;-61
2022/04/18 10:13:53;;;;;;;9.35;2.83;;;24.80;33.70;;;;;;1964775;72;21061;-61
2022/04/18 10:17:53;;;;;;;16.25;2.67;;;24.80;32.60;;;;;;2018487;70;28284;-64
2022/04/18 10:20:48;;;;;;;14.03;3.45;;;25.00;32.90;;;;;;1981254;72;21082;-59
2022/04/18 10:23:37;;;;;;;24.72;4.08;;;25.00;32.40;;;;;;1987649;71;21098;-58
2022/04/18 10:26:43;;;;;;;13.28;3.90;;;25.10;32.80;;;;;;1974321;71;21080;-66
2022/04/18 10:29:16;;;;;;;9.53;2.80;;;25.10;32.40;;;;;;1966983;72;21069;-65
2022/04/18 10:31:45;;;;;;;23.52;4.03;;;25.10;32.50;;;;;;1964688;72;21716;-65
2022/04/18 10:34:15;;;;;;;14.80;3.05;;;25.10;32.60;;;;;;1975322;72;21050;-60
2022/04/18 10:36:50;;;;;;;20.12;3.70;;;25.10;33.00;;;;;;1973760;72;21022;-60
2022/04/18 10:39:19;;;;;;;22.62;11.75;;;25.10;33.10;;;;;;1973738;73;21096;-60
2022/04/18 10:41:54;;;;;;;17.45;3.77;;;25.10;33.10;;;;;;1971391;72;21103;-60
2022/04/18 10:44:21;;;;;;;10.98;3.52;;;25.00;33.10;;;;;;1982051;72;21562;-59
2022/04/18 10:46:56;;;;;;;11.03;3.30;;;24.90;33.60;;;;;;1972137;72;21076;-61
2022/04/18 10:49:31;;;;;;;18.15;5.17;;;24.90;32.90;;;;;;1974530;73;21119;-61
2022/04/18 10:51:57;;;;;;;15.75;2.85;;;25.00;32.30;;;;;;1970195;72;21049;-61
2022/04/18 10:54:30;;;;;;;11.73;3.62;;;25.10;32.00;;;;;;1990224;72;21429;-61
2022/04/18 10:57:11;;;;;;;8.73;2.83;;;25.10;31.80;;;;;;1973014;72;21042;-61
2022/04/18 10:59:46;;;;;;;18.42;3.08;;;25.20;31.80;;;;;;1976510;72;21109;-61
2022/04/18 11:02:45;;;;;;;6.78;2.77;;;25.30;31.60;;;;;;1974650;73;21074;-61
2022/04/18 11:05:12;;;;;;;9.95;3.25;;;25.40;31.40;;;;;;1971587;72;21037;-61
2022/04/18 11:07:43;;;;;;;21.40;4.42;;;25.30;31.80;;;;;;1989874;72;21002;-60
2022/04/18 11:10:24;;;;;;;7.92;3.22;;;25.30;31.00;;;;;;1969141;72;21033;-59
2022/04/18 11:13:06;;;;;;;13.40;3.60;;;25.40;30.70;;;;;;1971282;72;21014;-61
2022/04/18 11:15:35;;;;;;;17.17;3.05;;;25.50;31.20;;;;;;1974086;72;21003;-60
2022/04/18 11:18:04;;;;;;;21.95;4.97;;;25.50;31.10;;;;;;1976918;72;21088;-61
2022/04/18 11:20:37;;;;;;;9.80;4.65;;;25.50;31.10;;;;;;1984983;72;21034;-61
2022/04/18 11:23:25;;;;;;;7.58;2.40;;;25.50;30.60;;;;;;1973959;72;21104;-61
2022/04/18 11:25:59;;;;;;;12.45;3.27;;;25.50;30.50;;;;;;1974413;73;21031;-61
2022/04/18 11:28:41;;;;;;;11.43;4.58;;;25.50;30.30;;;;;;1974007;72;21042;-60
2022/04/18 11:31:13;;;;;;;18.48;2.95;;;25.60;30.30;;;;;;1973711;72;21100;-61
2022/04/18 11:33:43;;;;;;;13.98;2.58;;;25.60;29.90;;;;;;1976786;72;21476;-60
2022/04/18 11:36:14;;;;;;;17.02;4.33;;;25.70;30.00;;;;;;1985499;72;21027;-61
2022/04/18 11:38:44;;;;;;;16.75;3.47;;;25.70;30.40;;;;;;1968289;72;21099;-60
2022/04/18 11:41:14;;;;;;;17.73;3.33;;;25.70;30.30;;;;;;1977948;72;21590;-61
2022/04/18 11:43:44;;;;;;;10.15;3.08;;;25.80;29.80;;;;;;1977790;72;21034;-61
2022/04/18 11:46:13;;;;;;;10.10;2.70;;;25.80;29.80;;;;;;1979875;72;21095;-60
2022/04/18 11:48:42;;;;;;;13.78;3.25;;;25.70;29.50;;;;;;1970727;72;21009;-61
2022/04/18 11:51:11;;;;;;;14.47;4.65;;;25.70;29.60;;;;;;1975078;72;21409;-61
2022/04/18 11:53:40;;;;;;;6.83;2.22;;;25.70;29.70;;;;;;1971332;72;21026;-60
2022/04/18 11:56:11;;;;;;;10.18;3.00;;;25.70;29.50;;;;;;1934848;73;21126;-60
2022/04/18 11:58:41;;;;;;;12.90;2.98;;;25.70;29.60;;;;;;1966796;72;21080;-60
2022/04/18 12:06:49;;;;;;;15.72;3.47;;;25.70;29.90;;;;;;1968656;72;21006;-59
2022/04/18 12:09:21;;;;;;;11.90;3.00;;;25.80;30.10;;;;;;1970255;72;21136;-60
2022/04/18 12:11:51;;;;;;;16.23;3.10;;;25.80;30.00;;;;;;1969905;72;21010;-60
2022/04/18 12:14:20;;;;;;;16.07;3.25;;;25.90;29.50;;;;;;1973652;73;21081;-60
2022/04/18 12:16:50;;;;;;;13.98;3.45;;;25.90;29.50;;;;;;1973672;73;21010;-60
2022/04/18 12:19:19;;;;;;;16.57;3.55;;;26.00;29.60;;;;;;1970073;72;21030;-60
2022/04/18 12:21:55;;;;;;;10.48;2.45;;;26.00;29.60;;;;;;1972935;72;21022;-59
2022/04/18 12:24:24;;;;;;;12.25;3.33;;;26.00;29.80;;;;;;1973628;73;21015;-60
2022/04/18 12:26:54;;;;;;;9.73;3.22;;;26.00;29.60;;;;;;1973640;72;21039;-60
2022/04/18 12:29:23;;;;;;;10.18;2.58;;;25.90;29.60;;;;;;1966438;72;21018;-60
2022/04/18 12:32:00;;;;;;;14.55;2.90;;;25.90;29.80;;;;;;1970386;72;21432;-60
2022/04/18 12:34:29;;;;;;;11.28;3.70;;;25.90;29.70;;;;;;1973131;72;21046;-60
2022/04/18 12:37:03;;;;;;;11.75;3.33;;;25.90;29.90;;;;;;1973619;73;21486;-61
2022/04/18 12:39:33;;;;;;;23.87;3.47;;;25.90;29.90;;;;;;1973976;72;21034;-61
2022/04/18 12:42:04;;;;;;;14.50;3.05;;;25.90;29.70;;;;;;1976857;72;21007;-61
2022/04/18 12:44:33;;;;;;;16.05;3.52;;;25.90;29.80;;;;;;1972879;72;21011;-62
2022/04/18 12:47:21;;;;;;;17.35;3.33;;;25.90;29.80;;;;;;1973712;73;21429;-61
2022/04/18 12:50:10;;;;;;;12.18;2.70;;;25.90;29.50;;;;;;1976890;72;21036;-61
2022/04/18 12:52:52;;;;;;;9.23;3.42;;;25.90;29.50;;;;;;1973751;72;21035;-61
2022/04/18 12:55:33;;;;;;;10.63;3.22;;;25.90;29.70;;;;;;1973391;72;21093;-61
2022/04/18 12:58:00;;;;;;;14.75;3.20;;;26.00;29.80;;;;;;1960642;72;21019;-61
2022/04/18 13:00:37;;;;;;;9.93;3.12;;;26.00;29.90;;;;;;1967361;72;21481;-60
2022/04/18 13:03:08;;;;;;;17.10;3.67;;;26.00;29.80;;;;;;1986283;72;21120;-61
2022/04/18 13:05:43;;;;;;;13.95;3.72;;;26.00;30.00;;;;;;1973759;72;21104;-61
2022/04/18 13:08:13;;;;;;;16.50;4.17;;;26.00;29.90;;;;;;1973575;72;20999;-61
2022/04/18 13:10:43;;;;;;;29.57;9.55;;;26.00;29.80;;;;;;1966802;72;21104;-61
2022/04/18 13:13:20;;;;;;;15.40;4.22;;;26.00;29.80;;;;;;1976236;72;21042;-61
2022/04/18 13:15:50;;;;;;;17.12;3.42;;;26.00;29.80;;;;;;1979979;72;21035;-62
2022/04/18 13:18:27;;;;;;;10.10;2.80;;;26.00;29.90;;;;;;1966703;72;21096;-61
2022/04/18 13:20:56;;;;;;;11.68;3.02;;;25.90;29.80;;;;;;1979974;72;21140;-61
2022/04/18 13:23:25;;;;;;;19.10;5.25;;;25.90;29.80;;;;;;1967338;72;21046;-61
2022/04/18 13:25:54;;;;;;;12.45;3.00;;;25.90;29.60;;;;;;1970432;72;21027;-61
2022/04/18 13:28:25;;;;;;;22.25;4.17;;;25.90;29.70;;;;;;1973664;73;21014;-61
2022/04/18 13:30:55;;;;;;;16.23;3.27;;;25.90;29.60;;;;;;1977921;72;21026;-62
2022/04/18 13:33:24;;;;;;;11.85;3.17;;;25.90;29.60;;;;;;1974761;72;21015;-62
2022/04/18 13:38:42;;;;;;;12.50;3.60;;;26.00;29.30;;;;;;1970985;72;21002;-60
2022/04/18 13:41:11;;;;;;;20.48;4.10;;;26.00;29.10;;;;;;1975246;72;21031;-60
2022/04/18 13:43:40;;;;;;;24.75;5.22;;;25.90;29.10;;;;;;1973741;73;21085;-61
2022/04/18 13:46:10;;;;;;;11.60;3.87;;;26.00;28.90;;;;;;1973713;72;21195;-61
2022/04/18 13:48:39;;;;;;;14.45;4.55;;;25.90;29.00;;;;;;1971491;72;21084;-60
2022/04/18 13:51:09;;;;;;;20.00;6.87;;;26.00;29.00;;;;;;1976328;72;21100;-61
2022/04/18 13:53:38;;;;;;;12.80;4.28;;;25.90;29.00;;;;;;1966476;72;21076;-61
2022/04/18 13:56:07;;;;;;;17.40;4.25;;;25.90;29.10;;;;;;1973035;72;21033;-61
2022/04/18 13:58:36;;;;;;;11.28;2.80;;;25.90;29.20;;;;;;1968433;72;21525;-61
2022/04/18 14:01:06;;;;;;;13.62;4.25;;;25.80;29.30;;;;;;1972182;72;21082;-61
2022/04/18 14:03:37;;;;;;;9.43;3.22;;;25.80;29.50;;;;;;1979369;72;21014;-61
2022/04/18 14:06:07;;;;;;;12.58;3.12;;;25.80;29.00;;;;;;1967610;72;21073;-61
2022/04/18 14:08:38;;;;;;;12.43;3.27;;;25.80;29.20;;;;;;1989532;72;21038;-61
2022/04/18 14:11:09;;;;;;;13.95;3.65;;;25.70;29.30;;;;;;1976081;72;21233;-61
2022/04/18 14:13:39;;;;;;;19.87;4.17;;;25.70;29.50;;;;;;1977215;72;21104;-61
2022/04/18 14:21:45;;;;;;;12.00;3.40;;;25.70;29.40;;;;;;1929922;74;21066;-62
2022/04/18 14:24:13;;;;;;;13.22;5.30;;;25.60;29.40;;;;;;1963691;72;21103;-62
2022/04/18 14:26:43;;;;;;;16.75;3.12;;;25.60;29.50;;;;;;1976843;72;21025;-61
2022/04/18 14:29:12;;;;;;;21.73;4.62;;;25.60;29.70;;;;;;1988663;72;21038;-62
2022/04/18 14:31:41;;;;;;;14.98;4.75;;;25.50;29.60;;;;;;1970061;72;21006;-61
2022/04/18 14:34:11;;;;;;;12.75;3.87;;;25.50;29.60;;;;;;1973745;73;21398;-62
2022/04/18 14:36:41;;;;;;;24.63;5.95;;;25.50;29.80;;;;;;1974675;72;21087;-61
2022/04/18 14:39:10;;;;;;;13.62;3.45;;;25.40;29.80;;;;;;1974746;72;21034;-61
2022/04/18 14:41:39;;;;;;;35.65;4.83;;;25.40;29.50;;;;;;1972843;72;21452;-61
2022/04/18 14:44:08;;;;;;;17.12;3.20;;;25.30;29.70;;;;;;1972705;72;21034;-62
2022/04/18 14:46:38;;;;;;;19.80;3.70;;;25.30;29.50;;;;;;1969915;72;21030;-61
2022/04/18 14:49:07;;;;;;;11.63;3.95;;;25.30;29.60;;;;;;1970254;72;21074;-61
2022/04/18 14:51:36;;;;;;;15.05;3.62;;;25.20;29.80;;;;;;1973591;73;21061;-61
2022/04/18 14:54:06;;;;;;;12.93;3.90;;;25.10;29.80;;;;;;1973331;72;21326;-61
2022/04/18 14:56:35;;;;;;;25.85;8.30;;;25.10;29.80;;;;;;1984206;72;21136;-61
2022/04/18 14:59:05;;;;;;;14.87;3.85;;;25.00;29.90;;;;;;1973312;72;21006;-60
2022/04/18 15:01:36;;;;;;;17.62;3.50;;;25.00;30.00;;;;;;1967797;72;21029;-61
2022/04/18 15:04:05;;;;;;;16.25;4.12;;;25.00;30.00;;;;;;1987969;72;21007;-61
2022/04/18 15:06:35;;;;;;;28.05;5.67;;;24.90;30.00;;;;;;1861981;71;21094;-61
2022/04/18 15:09:04;;;;;;;33.80;6.87;;;24.90;30.00;;;;;;1856984;76;21254;-61
2022/04/18 15:11:34;;;;;;;36.03;6.15;;;24.80;30.20;;;;;;1853788;76;21057;-61
2022/04/18 15:14:03;;;;;;;12.73;3.80;;;24.80;30.90;;;;;;1854789;76;21065;-61
2022/04/18 15:16:33;;;;;;;21.93;5.47;;;24.70;30.20;;;;;;1853676;76;21096;-61
2022/04/18 15:19:02;;;;;;;15.60;3.60;;;24.60;30.20;;;;;;1854303;76;21085;-61
2022/04/18 15:21:32;;;;;;;18.98;4.85;;;24.60;30.30;;;;;;1856642;76;21041;-61
2022/04/18 15:24:02;;;;;;;21.62;5.17;;;24.60;30.50;;;;;;1853724;76;21113;-61
2022/04/18 15:26:31;;;;;;;19.95;5.53;;;24.50;30.50;;;;;;1855561;76;21125;-61
2022/04/18 15:29:01;;;;;;;19.77;7.40;;;24.50;30.30;;;;;;1853351;76;21127;-61
2022/04/18 15:34:17;;;;;;;19.48;4.83;;;24.40;30.00;;;;;;1853648;76;21058;-61
2022/04/18 15:36:47;;;;;;;18.45;3.87;;;24.50;29.80;;;;;;1855996;76;21131;-60
2022/04/18 15:39:16;;;;;;;18.07;4.12;;;24.50;29.20;;;;;;1854965;76;21139;-61
2022/04/18 15:41:46;;;;;;;19.32;5.35;;;24.50;29.50;;;;;;1851813;77;21050;-61
2022/04/18 15:44:15;;;;;;;18.73;4.47;;;24.50;29.10;;;;;;1854273;76;21074;-60
2022/04/18 15:46:44;;;;;;;22.35;5.40;;;24.50;29.20;;;;;;1855616;76;21151;-61
2022/04/18 15:49:14;;;;;;;19.62;4.55;;;24.50;29.20;;;;;;1859054;76;21077;-61
2022/04/18 15:51:43;;;;;;;22.45;4.67;;;24.50;29.50;;;;;;1854561;76;21053;-60
2022/04/18 15:54:13;;;;;;;20.65;4.92;;;24.50;29.50;;;;;;1855893;76;21151;-60
2022/04/18 15:56:42;;;;;;;17.67;4.35;;;24.50;29.60;;;;;;1857306;76;21081;-61
2022/04/18 15:59:11;;;;;;;19.52;5.87;;;24.50;29.80;;;;;;1855533;76;21196;-61
2022/04/18 16:01:41;;;;;;;21.75;4.42;;;24.50;30.00;;;;;;1853439;77;21190;-61
2022/04/18 16:04:10;;;;;;;24.02;5.17;;;24.50;30.20;;;;;;1855851;75;21070;-61
2022/04/18 16:06:40;;;;;;;16.75;4.17;;;24.50;30.50;;;;;;1857777;76;21065;-60
2022/04/18 16:09:09;;;;;;;24.40;5.12;;;24.40;30.80;;;;;;1854575;76;21086;-60
2022/04/18 16:11:38;;;;;;;25.00;5.35;;;24.40;31.20;;;;;;1853755;76;21128;-60
2022/04/18 16:14:08;;;;;;;32.08;6.55;;;24.30;31.60;;;;;;1855693;76;21144;-60
2022/04/18 16:16:38;;;;;;;23.35;5.72;;;24.20;32.00;;;;;;1853445;76;21049;-60
2022/04/18 16:19:08;;;;;;;29.55;6.00;;;24.20;32.40;;;;;;1855154;75;21076;-60
2022/04/18 16:21:37;;;;;;;23.73;5.67;;;24.10;32.70;;;;;;1854634;76;21092;-61
2022/04/18 16:24:09;;;;;;;23.20;5.75;;;24.00;32.90;;;;;;1856429;76;21147;-60
2022/04/18 16:26:38;;;;;;;17.95;5.75;;;23.90;33.10;;;;;;1853245;76;21038;-61
2022/04/18 16:31:54;;;;;;;16.45;7.12;;;23.80;34.60;;;;;;1854022;76;21082;-61
2022/04/18 16:34:24;;;;;;;21.75;8.18;;;23.60;37.20;;;;;;1856218;75;21140;-61
2022/04/18 16:36:55;;;;;;;23.95;9.18;;;23.40;38.90;;;;;;1852753;76;21041;-61
2022/04/18 16:39:24;;;;;;;30.08;8.95;;;23.10;39.80;;;;;;1854001;77;21139;-60
2022/04/18 16:47:28;;;;;;;22.90;7.47;;;22.30;41.60;;;;;;1855902;76;21144;-61
2022/04/18 16:49:58;;;;;;;22.98;8.55;;;22.20;42.60;;;;;;1852662;77;21066;-61
2022/04/18 16:52:27;;;;;;;17.07;7.72;;;22.00;43.10;;;;;;1857221;76;21131;-61
2022/04/18 16:54:57;;;;;;;23.57;8.73;;;21.90;43.30;;;;;;1853311;76;21018;-61
2022/04/18 16:57:27;;;;;;;25.35;9.45;;;21.80;44.10;;;;;;1857512;76;21061;-61
2022/04/18 16:59:57;;;;;;;25.65;11.15;;;21.70;44.60;;;;;;1858474;75;21042;-60
2022/04/18 17:02:26;;;;;;;23.02;10.32;;;21.60;45.20;;;;;;1852860;76;21041;-61
2022/04/18 17:04:56;;;;;;;24.57;9.23;;;21.50;45.60;;;;;;1854997;76;21074;-61
2022/04/18 17:07:25;;;;;;;32.50;11.80;;;21.40;45.80;;;;;;1855895;76;21062;-61
2022/04/18 17:09:55;;;;;;;30.75;13.62;;;21.30;46.40;;;;;;1854050;76;21014;-61
2022/04/18 17:12:25;;;;;;;33.23;14.85;;;21.30;46.70;;;;;;1855043;76;21140;-61
2022/04/18 17:14:54;;;;;;;40.80;16.23;;;21.30;47.00;;;;;;1853451;76;21026;-60
2022/04/18 17:17:23;;;;;;;29.50;13.78;;;21.20;47.40;;;;;;1855273;76;21041;-61
2022/04/18 17:19:52;;;;;;;19.60;9.60;;;21.20;48.00;;;;;;1854919;76;21502;-61
2022/04/18 17:22:22;;;;;;;17.90;7.42;;;21.10;49.00;;;;;;1853529;76;21066;-61
2022/04/18 17:24:52;;;;;;;12.80;6.80;;;21.00;49.30;;;;;;1854406;76;21070;-61
2022/04/18 17:27:21;;;;;;;15.48;6.95;;;20.90;50.00;;;;;;1853995;77;21135;-61
2022/04/18 17:29:50;;;;;;;15.80;6.50;;;20.80;51.40;;;;;;1854461;76;21061;-61
2022/04/18 17:32:19;;;;;;;16.77;6.30;;;20.60;51.60;;;;;;1853941;76;21136;-61
2022/04/18 17:34:49;;;;;;;28.23;7.95;;;20.50;51.90;;;;;;1852758;77;21104;-61
2022/04/18 17:37:18;;;;;;;18.92;6.90;;;20.40;52.10;;;;;;1853942;77;21065;-60
2022/04/18 17:39:48;;;;;;;16.32;7.12;;;20.30;52.30;;;;;;1855728;76;21152;-61
2022/04/18 17:42:17;;;;;;;24.90;7.83;;;20.20;53.10;;;;;;1854887;76;21069;-61
2022/04/18 17:44:47;;;;;;;15.00;5.50;;;20.20;53.30;;;;;;1854892;76;21186;-61
2022/04/18 17:47:16;;;;;;;13.20;4.97;;;20.10;53.60;;;;;;1855645;75;21144;-61
2022/04/18 17:49:46;;;;;;;19.65;6.70;;;20.10;53.70;;;;;;1853469;76;21073;-61
2022/04/18 17:52:15;;;;;;;18.57;6.80;;;20.00;53.90;;;;;;1853520;76;21046;-61
2022/04/18 17:57:32;;;;;;;16.05;6.37;;;19.80;54.20;;;;;;1853532;76;21097;-61
2022/04/18 18:00:01;;;;;;;15.63;4.95;;;19.80;54.30;;;;;;1853466;77;21042;-61
2022/04/18 18:02:32;;;;;;;13.95;5.33;;;19.80;54.30;;;;;;1857710;76;21145;-61
2022/04/18 18:05:01;;;;;;;25.62;7.53;;;19.70;54.30;;;;;;1853437;76;21070;-61
2022/04/18 18:07:31;;;;;;;13.55;4.92;;;19.70;54.50;;;;;;1855641;76;21070;-61
2022/04/18 18:10:03;;;;;;;20.25;6.40;;;19.70;54.50;;;;;;1855389;75;21160;-61
2022/04/18 18:12:31;;;;;;;18.05;5.80;;;19.70;54.80;;;;;;1856137;76;21140;-61
2022/04/18 18:15:03;;;;;;;23.12;7.83;;;19.60;55.00;;;;;;1851732;77;21042;-61
2022/04/18 18:17:37;;;;;;;28.35;6.83;;;19.60;55.30;;;;;;1853776;77;21115;-61
2022/04/18 18:20:07;;;;;;;17.70;7.53;;;19.60;55.50;;;;;;1853697;76;21050;-61
2022/04/18 18:22:37;;;;;;;18.20;6.20;;;19.50;55.70;;;;;;1854668;76;21042;-61
2022/04/18 18:25:08;;;;;;;21.07;6.55;;;19.40;56.00;;;;;;1853612;76;21123;-62
2022/04/18 18:27:37;;;;;;;16.20;5.17;;;19.40;56.20;;;;;;1854636;77;21140;-61
2022/04/18 18:30:08;;;;;;;17.62;5.33;;;19.30;56.60;;;;;;1850969;77;21066;-62
2022/04/18 18:32:42;;;;;;;17.02;5.78;;;19.20;56.60;;;;;;1852489;77;21120;-61
2022/04/18 18:35:08;;;;;;;13.80;5.62;;;19.20;56.90;;;;;;1856615;76;21066;-61
2022/04/18 18:37:45;;;;;;;12.98;6.22;;;19.10;57.20;;;;;;1853295;77;21018;-61
2022/04/18 18:40:14;;;;;;;18.77;5.92;;;19.00;57.40;;;;;;1854034;76;21135;-61
2022/04/18 18:42:43;;;;;;;13.65;5.35;;;19.00;57.50;;;;;;1856834;76;21061;-61
2022/04/18 18:45:13;;;;;;;16.77;5.58;;;18.90;57.70;;;;;;1852868;77;21093;-62
2022/04/18 18:47:43;;;;;;;21.30;6.67;;;18.90;58.20;;;;;;1856859;76;21093;-62
2022/04/18 18:52:59;;;;;;;20.37;6.60;;;18.80;58.80;;;;;;1855042;76;21150;-62
2022/04/18 18:55:29;;;;;;;16.37;8.45;;;18.70;58.70;;;;;;1853602;76;21592;-62
2022/04/18 18:58:00;;;;;;;21.27;8.45;;;18.70;59.80;;;;;;1854743;76;21136;-62
2022/04/18 19:00:30;;;;;;;19.20;7.40;;;18.60;59.60;;;;;;1854424;76;21477;-62
2022/04/18 19:03:00;;;;;;;25.15;7.60;;;18.50;59.50;;;;;;1854173;76;21045;-59
2022/04/18 19:05:29;;;;;;;17.98;7.17;;;18.50;59.90;;;;;;1853672;76;21065;-62
2022/04/18 19:07:58;;;;;;;55.00;9.75;;;18.50;59.80;;;;;;1854608;76;21065;-61
2022/04/18 19:10:28;;;;;;;24.18;8.13;;;18.50;60.00;;;;;;1854580;76;21139;-62
2022/04/18 19:12:57;;;;;;;33.25;9.30;;;18.50;60.30;;;;;;1853737;77;21112;-62
2022/04/18 19:15:27;;;;;;;14.93;6.62;;;18.50;61.00;;;;;;1856249;76;21143;-62
2022/04/18 19:26:22;;;;;;;26.00;7.80;;;18.10;61.30;;;;;;1854420;76;21135;-62
2022/04/18 19:28:55;;;;;;;28.57;9.23;;;18.10;61.70;;;;;;1855788;76;21069;-62
2022/04/18 19:31:26;;;;;;;22.35;8.73;;;18.10;61.80;;;;;;1854947;76;21065;-62
2022/04/18 19:33:56;;;;;;;15.95;7.17;;;18.00;62.10;;;;;;1852789;76;21010;-61
2022/04/18 19:36:25;;;;;;;23.07;8.58;;;18.00;62.30;;;;;;1855270;76;21069;-61
2022/04/18 19:38:56;;;;;;;18.42;8.28;;;17.90;62.50;;;;;;1855948;76;21465;-62
2022/04/18 19:41:27;;;;;;;22.73;7.85;;;17.90;62.60;;;;;;1854321;76;21062;-62
2022/04/18 19:43:57;;;;;;;23.42;8.78;;;17.80;63.40;;;;;;1854191;75;21140;-61
2022/04/18 19:46:27;;;;;;;18.98;7.60;;;17.80;63.20;;;;;;1854910;77;21147;-62
2022/04/18 19:48:57;;;;;;;16.95;8.00;;;17.80;63.20;;;;;;1853742;77;21107;-62
2022/04/18 19:51:31;;;;;;;17.50;7.92;;;17.70;63.20;;;;;;1853730;76;21136;-62
2022/04/18 19:54:00;;;;;;;21.93;7.15;;;17.70;63.30;;;;;;1853596;76;21058;-61
2022/04/18 19:56:36;;;;;;;24.18;8.45;;;17.70;63.40;;;;;;1854962;76;21089;-62
2022/04/18 19:59:00;;;;;;;21.12;5.83;;;17.80;63.50;;;;;;1852607;76;21042;-62
2022/04/18 20:01:30;;;;;;;21.37;8.23;;;17.80;63.50;;;;;;1853560;76;21140;-61
2022/04/18 20:03:59;;;;;;;17.37;6.47;;;17.80;63.50;;;;;;1855833;76;21069;-62
2022/04/18 20:06:29;;;;;;;24.37;7.65;;;17.80;63.60;;;;;;1854696;76;21160;-62
2022/04/18 20:08:58;;;;;;;18.57;6.80;;;17.80;63.90;;;;;;1856649;75;21059;-61
2022/04/18 20:11:27;;;;;;;19.12;6.87;;;17.80;63.80;;;;;;1856895;76;21073;-61
2022/04/18 20:13:57;;;;;;;20.90;8.08;;;17.80;64.00;;;;;;1855280;76;21061;-61
2022/04/18 20:16:26;;;;;;;27.48;8.95;;;17.80;64.10;;;;;;1856128;76;21049;-62
2022/04/18 20:18:55;;;;;;;18.02;8.28;;;17.80;64.20;;;;;;1856350;76;21073;-61
2022/04/18 20:21:25;;;;;;;25.02;10.35;;;17.80;64.20;;;;;;1855185;76;21065;-61
2022/04/18 20:23:54;;;;;;;32.53;9.93;;;17.70;64.20;;;;;;1850918;77;21065;-62
2022/04/18 20:26:24;;;;;;;15.85;8.75;;;17.70;64.40;;;;;;1853991;76;21058;-61
2022/04/18 20:28:54;;;;;;;24.25;10.00;;;17.70;64.50;;;;;;1855116;76;21121;-61
2022/04/18 20:31:24;;;;;;;21.25;9.00;;;17.60;64.70;;;;;;1855760;76;21133;-61
2022/04/18 20:33:53;;;;;;;16.80;7.67;;;17.60;64.80;;;;;;1854800;76;21065;-61
2022/04/18 20:36:22;;;;;;;29.85;8.98;;;17.50;65.00;;;;;;1854669;76;21074;-61
2022/04/18 20:38:52;;;;;;;25.55;9.00;;;17.50;65.00;;;;;;1855018;76;21144;-61
2022/04/18 20:41:21;;;;;;;19.42;8.00;;;17.40;65.00;;;;;;1854927;76;21049;-61
2022/04/18 20:43:51;;;;;;;17.23;7.25;;;17.40;65.20;;;;;;1854853;76;21108;-61
2022/04/18 20:46:20;;;;;;;19.02;8.20;;;17.40;65.10;;;;;;1851301;77;21038;-61
2022/04/18 20:48:50;;;;;;;15.90;7.10;;;17.30;65.50;;;;;;1853657;76;21022;-61
2022/04/18 20:51:20;;;;;;;21.20;9.15;;;17.20;65.50;;;;;;1854999;76;21085;-61
2022/04/18 20:59:24;;;;;;;15.75;6.60;;;17.10;65.70;;;;;;1856395;76;21135;-61
2022/04/18 21:01:54;;;;;;;18.92;8.65;;;17.10;65.80;;;;;;1853402;77;21127;-61
2022/04/18 21:04:23;;;;;;;25.95;8.88;;;17.10;66.00;;;;;;1854566;76;21633;-61
2022/04/18 21:06:56;;;;;;;16.57;9.45;;;17.10;66.10;;;;;;1854113;76;21524;-61
2022/04/18 21:09:25;;;;;;;25.25;9.23;;;17.10;66.30;;;;;;1853732;76;21081;-61
2022/04/18 21:11:54;;;;;;;24.85;8.33;;;17.10;66.10;;;;;;1853169;76;21050;-60
2022/04/18 21:14:23;;;;;;;19.23;8.00;;;17.10;66.20;;;;;;1854768;76;21105;-59
2022/04/18 21:16:54;;;;;;;20.50;8.43;;;17.10;66.10;;;;;;1855250;76;21100;-60
2022/04/18 21:19:23;;;;;;;22.62;9.70;;;17.10;66.20;;;;;;1854824;76;21093;-60
2022/04/18 21:21:53;;;;;;;24.40;8.28;;;17.10;66.30;;;;;;1853921;76;21183;-60
2022/04/18 21:24:22;;;;;;;27.98;8.95;;;17.00;66.10;;;;;;1853387;77;21135;-60
2022/04/18 21:26:52;;;;;;;17.87;8.78;;;17.00;66.10;;;;;;1853150;76;21041;-60
2022/04/18 21:29:21;;;;;;;25.57;9.40;;;17.00;66.00;;;;;;1854048;76;21045;-60
2022/04/18 21:31:50;;;;;;;28.60;9.00;;;17.00;66.10;;;;;;1853597;76;21645;-60
2022/04/18 21:34:20;;;;;;;23.22;8.25;;;17.00;66.20;;;;;;1854868;76;21058;-60
2022/04/18 21:36:51;;;;;;;23.73;8.10;;;17.00;66.30;;;;;;1853415;76;21104;-59
2022/04/18 21:39:21;;;;;;;21.15;8.85;;;17.00;66.50;;;;;;1853515;76;21445;-60
2022/04/18 21:41:50;;;;;;;22.75;8.60;;;17.00;66.70;;;;;;1853537;77;21077;-60